createdAt,value
2022-08-20T00:00:41.479Z,13.93
2022-08-20T00:03:13.973Z,13.27
2022-08-20T00:05:44.620Z,19.73
2022-08-20T00:08:11.615Z,15.70
2022-08-20T00:10:41.647Z,13.18
2022-08-20T00:13:10.734Z,15.00
2022-08-20T00:15:42.411Z,13.48
2022-08-20T00:18:09.049Z,15.48
2022-08-20T00:20:43.437Z,15.93
2022-08-20T00:23:10.796Z,16.17
2022-08-20T00:25:38.849Z,15.40
2022-08-20T00:28:07.056Z,15.88
2022-08-20T00:30:35.559Z,15.77
2022-08-20T00:33:08.424Z,16.58
2022-08-20T00:35:37.418Z,18.58
2022-08-20T00:38:04.773Z,16.67
2022-08-20T00:40:36.150Z,19.65
2022-08-20T00:43:06.418Z,15.00
2022-08-20T00:45:35.615Z,15.27
2022-08-20T00:48:02.301Z,14.70
2022-08-20T00:50:34.185Z,15.60
2022-08-20T00:53:02.826Z,20.50
2022-08-20T00:55:31.756Z,14.77
2022-08-20T00:58:03.687Z,13.20
2022-08-20T01:00:35.726Z,13.23
2022-08-20T01:03:02.254Z,12.82
2022-08-20T01:05:30.196Z,11.82
2022-08-20T01:07:57.733Z,13.00
2022-08-20T01:10:28.502Z,13.25
2022-08-20T01:12:59.630Z,16.48
2022-08-20T01:15:31.142Z,14.63
2022-08-20T01:18:01.919Z,12.27
2022-08-20T01:20:33.659Z,16.23
2022-08-20T01:23:27.946Z,11.30
2022-08-20T01:26:06.034Z,11.80
2022-08-20T01:28:37.766Z,13.02
2022-08-20T01:31:12.177Z,11.98
2022-08-20T01:33:39.140Z,11.88
2022-08-20T01:36:06.643Z,11.52
2022-08-20T01:38:34.222Z,7.93
2022-08-20T01:41:43.866Z,11.10
2022-08-20T01:44:14.324Z,11.00
2022-08-20T01:46:47.207Z,10.32
2022-08-20T01:49:23.041Z,13.02
2022-08-20T01:51:52.261Z,8.85
2022-08-20T01:54:20.284Z,12.27
2022-08-20T01:57:11.938Z,12.48
2022-08-20T01:59:40.071Z,9.95
2022-08-20T02:02:07.319Z,12.90
2022-08-20T02:04:34.961Z,13.55
2022-08-20T02:07:04.959Z,10.80
2022-08-20T02:09:36.258Z,9.82
2022-08-20T02:12:04.507Z,11.88
2022-08-20T02:14:31.096Z,15.68
2022-08-20T02:16:59.018Z,13.65
2022-08-20T02:19:34.939Z,11.00
2022-08-20T02:22:08.627Z,14.77
2022-08-20T02:24:35.488Z,13.30
2022-08-20T02:27:02.028Z,12.25
2022-08-20T02:29:28.636Z,10.25
2022-08-20T02:32:32.290Z,16.65
2022-08-20T02:34:42.129Z,16.48
2022-08-20T02:37:09.664Z,13.68
2022-08-20T02:39:36.317Z,10.07
2022-08-20T02:42:03.927Z,12.70
2022-08-20T02:44:31.235Z,10.88
2022-08-20T02:46:58.411Z,12.57
2022-08-20T02:49:24.953Z,12.00
2022-08-20T02:51:51.709Z,11.38
2022-08-20T02:54:18.651Z,14.85
2022-08-20T02:56:45.246Z,13.15
2022-08-20T02:59:12.515Z,13.98
2022-08-20T03:01:45.726Z,11.80
2022-08-20T03:04:12.327Z,12.40
2022-08-20T03:06:38.904Z,11.60
2022-08-20T03:09:07.718Z,10.57
2022-08-20T03:11:34.963Z,12.77
2022-08-20T03:14:02.348Z,11.05
2022-08-20T03:16:28.939Z,16.88
2022-08-20T03:18:55.826Z,14.13
2022-08-20T03:21:22.585Z,16.35
2022-08-20T03:23:49.306Z,17.00
2022-08-20T03:26:16.535Z,13.68
2022-08-20T03:28:43.536Z,10.38
2022-08-20T03:31:10.903Z,8.68
2022-08-20T03:33:48.847Z,9.80
2022-08-20T03:36:24.206Z,11.73
2022-08-20T03:38:57.883Z,14.52
2022-08-20T03:41:25.314Z,15.77
2022-08-20T03:43:51.924Z,11.35
2022-08-20T03:46:22.937Z,13.25
2022-08-20T03:49:00.031Z,18.50
2022-08-20T03:51:29.419Z,13.43
2022-08-20T03:53:56.069Z,12.60
2022-08-20T03:56:22.619Z,13.63
2022-08-20T03:58:49.274Z,14.45
2022-08-20T04:01:45.079Z,14.05
2022-08-20T04:04:02.486Z,14.70
2022-08-20T04:06:30.428Z,12.70
2022-08-20T04:08:57.485Z,17.67
2022-08-20T04:11:24.430Z,14.15
2022-08-20T04:13:51.331Z,14.93
2022-08-20T04:16:19.330Z,12.25
2022-08-20T04:19:01.878Z,13.70
2022-08-20T04:21:32.518Z,17.73
2022-08-20T04:24:00.846Z,12.00
2022-08-20T04:26:27.426Z,11.75
2022-08-20T04:28:55.486Z,17.45
2022-08-20T04:31:25.296Z,17.20
2022-08-20T04:33:52.094Z,11.88
2022-08-20T04:36:18.631Z,12.85
2022-08-20T04:38:50.095Z,11.95
2022-08-20T04:41:21.025Z,14.32
2022-08-20T04:43:50.243Z,13.32
2022-08-20T04:46:17.070Z,15.48
2022-08-20T04:48:48.893Z,16.05
2022-08-20T04:51:16.982Z,12.93
2022-08-20T04:53:50.384Z,16.80
2022-08-20T04:56:23.897Z,13.23
2022-08-20T04:58:52.375Z,12.73
2022-08-20T05:01:19.405Z,16.35
2022-08-20T05:03:48.863Z,12.57
2022-08-20T05:06:17.782Z,16.65
2022-08-20T05:08:45.407Z,13.80
2022-08-20T05:11:35.357Z,12.98
2022-08-20T05:13:59.086Z,13.23
2022-08-20T05:16:27.078Z,13.93
2022-08-20T05:18:53.627Z,16.75
2022-08-20T05:21:20.812Z,10.82
2022-08-20T05:23:47.561Z,13.27
2022-08-20T05:26:16.035Z,10.27
2022-08-20T05:28:54.123Z,12.30
2022-08-20T05:31:31.754Z,13.77
2022-08-20T05:34:09.723Z,11.98
2022-08-20T05:36:40.090Z,11.73
2022-08-20T05:39:06.979Z,10.70
2022-08-20T05:41:33.993Z,16.40
2022-08-20T05:44:01.605Z,12.18
2022-08-20T05:46:31.336Z,15.20
2022-08-20T05:49:00.017Z,9.32
2022-08-20T05:51:28.348Z,9.60
2022-08-20T05:53:57.418Z,12.82
2022-08-20T05:56:26.896Z,9.68
2022-08-20T05:58:53.784Z,13.00
2022-08-20T06:01:20.396Z,10.63
2022-08-20T06:04:05.574Z,10.65
2022-08-20T06:06:45.700Z,13.30
2022-08-20T06:09:14.743Z,10.70
2022-08-20T06:11:41.263Z,12.85
2022-08-20T06:14:07.853Z,15.35
2022-08-20T06:16:34.487Z,18.02
2022-08-20T06:19:04.710Z,21.65
2022-08-20T06:21:31.768Z,12.57
2022-08-20T06:24:01.114Z,14.82
2022-08-20T06:26:30.046Z,19.45
2022-08-20T06:28:57.311Z,14.50
2022-08-20T06:31:24.382Z,18.23
2022-08-20T06:33:50.900Z,16.63
2022-08-20T06:36:19.042Z,19.98
2022-08-20T06:38:46.432Z,13.18
2022-08-20T06:41:14.046Z,10.05
2022-08-20T06:43:40.819Z,10.85
2022-08-20T06:46:07.805Z,12.25
2022-08-20T06:48:34.834Z,15.25
2022-08-20T06:51:01.676Z,9.90
2022-08-20T06:53:29.082Z,13.77
2022-08-20T06:55:58.907Z,12.38
2022-08-20T06:58:37.322Z,11.73
2022-08-20T07:01:10.742Z,14.93
2022-08-20T07:03:39.146Z,12.88
2022-08-20T07:06:06.731Z,19.27
2022-08-20T07:08:34.034Z,19.65
2022-08-20T07:11:00.829Z,19.38
2022-08-20T07:13:28.783Z,18.40
2022-08-20T07:15:56.163Z,18.75
2022-08-20T07:18:28.847Z,17.08
2022-08-20T07:20:57.351Z,16.38
2022-08-20T07:23:27.401Z,18.10
2022-08-20T07:25:55.673Z,22.63
2022-08-20T07:28:24.712Z,23.40
2022-08-20T07:31:13.855Z,20.95
2022-08-20T07:33:44.532Z,23.27
2022-08-20T07:36:12.647Z,25.55
2022-08-20T07:38:39.324Z,26.83
2022-08-20T07:41:10.003Z,18.42
2022-08-20T07:43:36.703Z,16.60
2022-08-20T07:46:08.974Z,14.60
2022-08-20T07:48:46.271Z,12.77
2022-08-20T07:51:17.102Z,15.40
2022-08-20T07:53:46.708Z,12.68
2022-08-20T07:56:19.361Z,19.08
2022-08-20T07:58:50.123Z,17.98
2022-08-20T08:01:25.844Z,13.30
2022-08-20T08:03:52.992Z,13.90
2022-08-20T08:06:29.394Z,9.27
2022-08-20T08:09:06.924Z,9.80
2022-08-20T08:11:37.624Z,11.93
2022-08-20T08:14:06.890Z,15.25
2022-08-20T08:16:35.113Z,19.70
2022-08-20T08:19:04.754Z,14.40
2022-08-20T08:21:31.455Z,16.13
2022-08-20T08:23:58.526Z,15.48
2022-08-20T08:26:26.279Z,10.07
2022-08-20T08:28:52.810Z,13.02
2022-08-20T08:31:19.375Z,13.10
2022-08-20T08:33:46.385Z,15.93
2022-08-20T08:36:15.419Z,10.68
2022-08-20T08:38:45.222Z,16.90
2022-08-20T08:41:14.698Z,13.25
2022-08-20T08:43:45.514Z,14.25
2022-08-20T08:46:13.688Z,13.75
2022-08-20T08:48:47.131Z,9.20
2022-08-20T08:51:18.962Z,16.52
2022-08-20T08:53:54.787Z,21.38
2022-08-20T08:56:28.476Z,12.98
2022-08-20T08:59:00.489Z,18.23
2022-08-20T09:01:54.243Z,12.73
2022-08-20T09:04:17.742Z,16.35
2022-08-20T09:06:52.957Z,12.85
2022-08-20T09:09:24.810Z,18.55
2022-08-20T09:11:55.170Z,13.95
2022-08-20T09:14:24.880Z,11.85
2022-08-20T09:16:53.476Z,14.48
2022-08-20T09:19:21.329Z,14.50
2022-08-20T09:21:48.227Z,15.38
2022-08-20T09:24:14.762Z,12.27
2022-08-20T09:26:41.379Z,14.43
2022-08-20T09:29:08.036Z,15.85
2022-08-20T09:31:35.317Z,14.60
2022-08-20T09:34:03.965Z,14.77
2022-08-20T09:36:32.528Z,14.07
2022-08-20T09:39:00.582Z,14.55
2022-08-20T09:41:31.219Z,13.05
2022-08-20T09:44:00.521Z,13.57
2022-08-20T09:46:27.686Z,15.45
2022-08-20T09:48:54.865Z,13.63
2022-08-20T09:51:21.985Z,20.17
2022-08-20T09:53:49.109Z,12.60
2022-08-20T09:56:16.912Z,14.50
2022-08-20T09:58:50.038Z,13.27
2022-08-20T10:01:19.573Z,12.50
2022-08-20T10:03:48.939Z,12.95
2022-08-20T10:06:20.181Z,12.43
2022-08-20T10:08:47.283Z,12.32
2022-08-20T10:11:13.794Z,17.63
2022-08-20T10:13:40.366Z,12.45
2022-08-20T10:16:07.295Z,18.08
2022-08-20T10:18:34.974Z,10.70
2022-08-20T10:21:01.534Z,13.60
2022-08-20T10:23:28.170Z,10.13
2022-08-20T10:25:54.723Z,11.15
2022-08-20T10:28:21.242Z,9.63
2022-08-20T10:30:47.872Z,8.13
2022-08-20T10:33:14.458Z,11.02
2022-08-20T10:35:41.046Z,9.43
2022-08-20T10:38:07.588Z,10.13
2022-08-20T10:40:34.110Z,10.18
2022-08-20T10:43:00.770Z,10.85
2022-08-20T10:45:27.463Z,10.75
2022-08-20T10:47:54.068Z,19.30
2022-08-20T10:50:20.957Z,19.92
2022-08-20T10:52:47.612Z,32.88
2022-08-20T10:55:14.735Z,39.95
2022-08-20T10:57:43.424Z,43.92
2022-08-20T11:00:15.089Z,43.78
2022-08-20T11:02:41.630Z,44.25
2022-08-20T11:05:09.129Z,35.70
2022-08-20T11:07:50.506Z,44.75
2022-08-20T11:10:25.189Z,32.13
2022-08-20T11:12:51.752Z,30.50
2022-08-20T11:15:18.523Z,36.75
2022-08-20T11:17:45.708Z,36.50
2022-08-20T11:20:14.875Z,36.28
2022-08-20T11:22:41.447Z,34.83
2022-08-20T11:25:09.283Z,44.97
2022-08-20T11:27:48.302Z,71.30
2022-08-20T11:30:19.623Z,93.38
2022-08-20T11:32:46.179Z,97.18
2022-08-20T11:35:41.090Z,125.97
2022-08-20T11:38:01.099Z,118.97
2022-08-20T11:40:29.383Z,194.05
2022-08-20T11:43:14.282Z,127.10
2022-08-20T11:48:08.140Z,123.75
2022-08-20T11:50:34.711Z,132.38
2022-08-20T11:53:01.796Z,133.63
2022-08-20T11:55:30.388Z,153.32
2022-08-20T11:57:59.877Z,127.22
2022-08-20T12:00:32.991Z,161.45
2022-08-20T12:03:01.490Z,131.70
2022-08-20T12:05:29.789Z,170.05
2022-08-20T12:07:57.868Z,185.23
2022-08-20T12:10:26.811Z,150.80
2022-08-20T12:12:54.336Z,160.35
2022-08-20T12:15:21.006Z,141.00
2022-08-20T12:17:47.839Z,133.68
2022-08-20T12:20:15.563Z,149.35
2022-08-20T12:22:42.338Z,137.10
2022-08-20T12:25:09.428Z,156.68
2022-08-20T12:27:37.290Z,155.52
2022-08-20T12:30:11.070Z,158.80
2022-08-20T12:32:37.650Z,139.98
2022-08-20T12:35:06.747Z,156.50
2022-08-20T12:37:33.564Z,147.45
2022-08-20T12:40:02.078Z,142.63
2022-08-20T12:42:31.666Z,153.93
2022-08-20T12:44:59.698Z,143.20
2022-08-20T12:47:35.166Z,147.75
2022-08-20T12:50:09.295Z,185.63
2022-08-20T12:52:36.459Z,197.80
2022-08-20T12:55:05.078Z,147.48
2022-08-20T12:57:34.850Z,162.45
2022-08-20T13:00:08.628Z,155.85
2022-08-20T13:02:35.501Z,159.93
2022-08-20T13:05:04.943Z,180.77
2022-08-20T13:07:33.070Z,152.80
2022-08-20T13:09:59.996Z,188.55
2022-08-20T13:12:27.028Z,166.68
2022-08-20T13:14:53.546Z,188.80
2022-08-20T13:17:20.367Z,188.82
2022-08-20T13:20:00.199Z,186.15
2022-08-20T13:22:26.824Z,210.68
2022-08-20T13:24:53.809Z,220.90
2022-08-20T13:27:22.611Z,205.55
2022-08-20T13:29:53.997Z,225.70
2022-08-20T13:32:23.571Z,227.88
2022-08-20T13:34:51.668Z,225.55
2022-08-20T13:37:25.078Z,239.15
2022-08-20T13:39:53.425Z,246.25
2022-08-20T13:42:20.227Z,273.15
2022-08-20T13:44:46.811Z,268.95
2022-08-20T13:47:18.447Z,271.42
2022-08-20T13:49:45.540Z,287.02
2022-08-20T13:52:12.572Z,292.02
2022-08-20T13:54:43.672Z,295.42
2022-08-20T13:57:13.605Z,295.30
2022-08-20T13:59:43.453Z,304.27
2022-08-20T14:02:11.769Z,299.65
2022-08-20T14:04:40.218Z,321.70
2022-08-20T14:07:15.831Z,327.17
2022-08-20T14:09:45.067Z,355.45
2022-08-20T14:12:13.335Z,318.30
2022-08-20T14:14:40.724Z,314.40
2022-08-20T14:17:26.833Z,334.30
2022-08-20T14:20:00.904Z,328.85
2022-08-20T14:22:29.106Z,318.58
2022-08-20T14:24:56.540Z,338.48
2022-08-20T14:27:27.791Z,335.95
2022-08-20T14:29:58.146Z,346.50
2022-08-20T14:32:24.813Z,352.10
2022-08-20T14:34:51.446Z,361.92
2022-08-20T14:37:21.265Z,373.17
2022-08-20T14:39:51.282Z,383.42
2022-08-20T14:42:18.272Z,329.73
2022-08-20T14:44:44.983Z,364.08
2022-08-20T14:47:14.711Z,393.15
2022-08-20T14:49:41.355Z,395.98
2022-08-20T14:52:08.067Z,385.20
2022-08-20T14:54:35.312Z,396.92
2022-08-20T14:57:02.321Z,388.70
2022-08-20T14:59:29.307Z,398.35
2022-08-20T15:01:56.127Z,401.50
2022-08-20T15:04:23.905Z,393.08
2022-08-20T15:06:53.307Z,390.38
2022-08-20T15:09:21.282Z,395.83
2022-08-20T15:11:47.855Z,388.17
2022-08-20T15:14:15.060Z,377.67
2022-08-20T15:16:45.050Z,372.10
2022-08-20T15:19:11.712Z,376.25
2022-08-20T15:21:44.981Z,364.30
2022-08-20T15:24:19.359Z,357.75
2022-08-20T15:29:12.794Z,346.95
2022-08-20T15:31:49.755Z,356.40
2022-08-20T15:34:17.823Z,369.27
2022-08-20T15:36:45.180Z,367.10
2022-08-20T15:39:11.855Z,355.77
2022-08-20T15:41:38.394Z,372.35
2022-08-20T15:44:04.986Z,364.38
2022-08-20T15:46:36.174Z,381.70
2022-08-20T15:49:11.344Z,374.33
2022-08-20T15:51:46.533Z,371.08
2022-08-20T15:54:22.106Z,355.13
2022-08-20T15:57:02.882Z,352.48
2022-08-20T15:59:53.771Z,379.25
2022-08-20T16:02:38.943Z,351.10
2022-08-20T16:05:11.448Z,350.10
2022-08-20T16:07:58.671Z,332.35
2022-08-20T16:10:41.017Z,326.30
2022-08-20T16:13:19.327Z,333.10
2022-08-20T16:15:49.410Z,315.77
2022-08-20T16:18:23.075Z,338.98
2022-08-20T16:20:53.634Z,329.90
2022-08-20T16:23:27.989Z,316.67
2022-08-20T16:26:12.635Z,308.83
2022-08-20T16:28:57.461Z,312.27
2022-08-20T16:31:29.450Z,313.33
2022-08-20T16:34:28.176Z,315.17
2022-08-20T16:37:25.389Z,252.68
2022-08-20T16:40:13.357Z,279.92
2022-08-20T16:42:43.957Z,272.88
2022-08-20T16:45:19.297Z,244.05
2022-08-20T16:47:46.451Z,222.32
2022-08-20T16:50:23.964Z,210.45
2022-08-20T16:52:51.765Z,219.60
2022-08-20T16:55:22.066Z,211.68
2022-08-20T16:57:49.304Z,210.52
2022-08-20T17:00:30.393Z,207.43
2022-08-20T17:02:59.537Z,199.30
2022-08-20T17:05:49.834Z,199.57
2022-08-20T17:08:31.118Z,193.95
2022-08-20T17:11:13.126Z,182.35
2022-08-20T17:13:42.690Z,186.07
2022-08-20T17:16:14.916Z,185.85
2022-08-20T17:18:53.311Z,188.13
2022-08-20T17:21:28.138Z,189.30
2022-08-20T17:24:09.616Z,187.73
2022-08-20T17:26:47.823Z,198.77
2022-08-20T17:29:20.420Z,198.52
2022-08-20T17:31:56.451Z,195.30
2022-08-20T17:34:30.104Z,208.02
2022-08-20T17:37:10.917Z,215.27
2022-08-20T17:39:46.708Z,201.07
2022-08-20T17:42:22.782Z,194.90
2022-08-20T17:45:15.510Z,173.95
2022-08-20T17:47:43.960Z,157.82
2022-08-20T17:50:18.615Z,152.82
2022-08-20T17:52:56.078Z,142.65
2022-08-20T17:55:23.710Z,135.45
2022-08-20T17:57:56.566Z,126.70
2022-08-20T18:00:26.149Z,109.03
2022-08-20T18:03:20.857Z,96.18
2022-08-20T18:08:40.907Z,51.35
2022-08-20T18:11:16.389Z,48.90
2022-08-20T18:13:57.916Z,45.70
2022-08-20T18:16:45.500Z,40.60
2022-08-20T18:19:33.758Z,32.53
2022-08-20T18:22:13.270Z,30.42
2022-08-20T18:24:48.757Z,29.90
2022-08-20T18:27:18.717Z,30.80
2022-08-20T18:29:52.312Z,26.65
2022-08-20T18:32:29.571Z,25.50
2022-08-20T18:35:08.514Z,23.30
2022-08-20T18:37:35.251Z,24.20
2022-08-20T18:40:17.078Z,23.88
2022-08-20T18:42:45.785Z,23.13
2022-08-20T18:45:12.802Z,24.08
2022-08-20T18:47:45.166Z,23.60
2022-08-20T18:50:36.422Z,23.58
2022-08-20T18:53:16.927Z,28.40
2022-08-20T18:56:27.326Z,35.13
2022-08-20T18:59:22.986Z,35.15
2022-08-20T19:01:50.023Z,39.20
2022-08-20T19:04:31.961Z,39.65
2022-08-20T19:07:10.199Z,37.72
2022-08-20T19:09:52.228Z,37.50
2022-08-20T19:12:27.779Z,38.95
2022-08-20T19:14:57.222Z,36.40
2022-08-20T19:17:35.194Z,39.90
2022-08-20T19:20:16.890Z,36.38
2022-08-20T19:22:44.665Z,37.17
2022-08-20T19:25:54.218Z,36.13
2022-08-20T19:28:31.913Z,32.15
2022-08-20T19:31:20.884Z,22.67
2022-08-20T19:33:48.468Z,14.18
2022-08-20T19:36:28.396Z,15.77
2022-08-20T19:38:58.305Z,8.70
2022-08-20T19:41:31.447Z,9.55
2022-08-20T19:43:59.818Z,14.40
2022-08-20T19:46:33.879Z,8.60
2022-08-20T19:49:15.774Z,12.52
2022-08-20T19:52:00.207Z,10.68
2022-08-20T19:54:29.442Z,21.92
2022-08-20T19:56:57.818Z,10.30
2022-08-20T19:59:25.267Z,7.90
2022-08-20T20:02:02.494Z,9.63
2022-08-20T20:04:37.629Z,7.72
2022-08-20T20:07:15.722Z,10.15
2022-08-20T20:09:42.595Z,10.80
2022-08-20T20:12:22.838Z,10.27
2022-08-20T20:14:52.520Z,9.07
2022-08-20T20:17:24.758Z,8.75
2022-08-20T20:19:56.849Z,8.05
2022-08-20T20:22:33.107Z,8.32
2022-08-20T20:25:20.015Z,10.15
2022-08-20T20:27:52.326Z,10.68
2022-08-20T20:30:28.686Z,8.30
2022-08-20T20:32:58.240Z,11.90
2022-08-20T20:35:34.201Z,6.72
2022-08-20T20:38:07.960Z,8.27
2022-08-20T20:40:45.709Z,11.85
2022-08-20T20:43:24.310Z,10.23
2022-08-20T20:46:02.492Z,10.02
2022-08-20T20:48:40.218Z,9.77
2022-08-20T20:51:30.849Z,9.35
2022-08-20T20:54:02.420Z,11.77
2022-08-20T20:56:51.262Z,10.43
2022-08-20T20:59:17.782Z,8.30
2022-08-20T21:01:48.151Z,9.57
2022-08-20T21:04:19.051Z,13.27
2022-08-20T21:06:46.093Z,8.20
2022-08-20T21:09:13.428Z,12.15
2022-08-20T21:11:39.975Z,11.23
2022-08-20T21:14:06.782Z,13.55
2022-08-20T21:16:33.391Z,10.63
2022-08-20T21:19:05.568Z,10.70
2022-08-20T21:21:32.354Z,8.48
2022-08-20T21:23:59.120Z,8.43
2022-08-20T21:26:27.870Z,8.50
2022-08-20T21:28:54.615Z,11.80
2022-08-20T21:31:21.412Z,10.63
2022-08-20T21:33:49.017Z,8.00
2022-08-20T21:36:16.025Z,8.77
2022-08-20T21:38:42.571Z,7.43
2022-08-20T21:41:09.354Z,10.32
2022-08-20T21:43:35.889Z,7.85
2022-08-20T21:46:04.095Z,7.13
2022-08-20T21:48:32.335Z,7.47
2022-08-20T21:50:58.869Z,6.97
2022-08-20T21:53:25.428Z,5.32
2022-08-20T21:55:52.062Z,7.40
2022-08-20T21:58:19.668Z,4.82
2022-08-20T22:00:50.910Z,5.30
2022-08-20T22:03:19.978Z,6.30
2022-08-20T22:05:47.463Z,5.97
2022-08-20T22:08:14.091Z,5.32
2022-08-20T22:10:40.665Z,5.95
2022-08-20T22:13:07.388Z,5.10
2022-08-20T22:15:34.334Z,5.90
2022-08-20T22:18:01.145Z,5.07
2022-08-20T22:20:27.892Z,5.05
2022-08-20T22:22:54.973Z,8.23
2022-08-20T22:25:21.524Z,5.53
2022-08-20T22:27:48.048Z,5.97
2022-08-20T22:30:14.799Z,5.45
2022-08-20T22:32:51.647Z,6.75
2022-08-20T22:35:19.522Z,4.38
2022-08-20T22:37:46.264Z,4.68
2022-08-20T22:40:13.027Z,4.40
2022-08-20T22:42:39.651Z,5.18
2022-08-20T22:45:11.544Z,4.25
2022-08-20T22:47:42.315Z,4.47
2022-08-20T22:50:10.187Z,4.18
2022-08-20T22:52:39.475Z,5.65
2022-08-20T22:55:06.828Z,4.95
2022-08-20T22:57:34.239Z,6.05
2022-08-20T23:00:01.078Z,5.15
2022-08-20T23:02:27.717Z,4.80
2022-08-20T23:04:54.306Z,4.47
2022-08-20T23:07:21.001Z,3.88
2022-08-20T23:09:47.564Z,5.40
2022-08-20T23:12:14.110Z,4.20
2022-08-20T23:14:40.902Z,4.70
2022-08-20T23:17:13.639Z,5.22
2022-08-20T23:19:41.827Z,5.78
2022-08-20T23:22:08.668Z,6.13
2022-08-20T23:24:35.547Z,7.25
2022-08-20T23:27:03.332Z,7.60
2022-08-20T23:29:30.678Z,6.97
2022-08-20T23:31:58.376Z,7.57
2022-08-20T23:34:25.965Z,7.30
2022-08-20T23:36:53.983Z,7.25
2022-08-20T23:39:20.584Z,6.18
2022-08-20T23:41:48.091Z,4.38
2022-08-20T23:44:26.067Z,5.18
2022-08-20T23:46:55.095Z,3.90
2022-08-20T23:49:21.755Z,2.92
2022-08-20T23:51:48.347Z,4.97
2022-08-20T23:54:14.970Z,3.22
2022-08-20T23:56:41.617Z,3.00
2022-08-20T23:59:08.171Z,3.50
